sensor_id;sensor_type;location;lat;lon;timestamp;P1;durP1;ratioP1;P2;durP2;ratioP2
46110;SDS011;31849;55.992;37.252;2024-01-10T00:01:13;1.15;;;0.52;;
46110;SDS011;31849;55.992;37.252;2024-01-10T00:06:18;1.45;;;0.70;;
46110;SDS011;31849;55.992;37.252;2024-01-10T00:11:23;1.70;;;0.80;;
46110;SDS011;31849;55.992;37.252;2024-01-10T00:16:27;1.33;;;0.60;;
46110;SDS011;31849;55.992;37.252;2024-01-10T00:21:30;1.17;;;0.52;;
46110;SDS011;31849;55.992;37.252;2024-01-10T00:26:35;1.70;;;0.90;;
46110;SDS011;31849;55.992;37.252;2024-01-10T00:31:39;1.08;;;0.63;;
46110;SDS011;31849;55.992;37.252;2024-01-10T00:36:43;1.17;;;0.60;;
46110;SDS011;31849;55.992;37.252;2024-01-10T00:41:48;1.80;;;0.75;;
46110;SDS011;31849;55.992;37.252;2024-01-10T00:46:52;1.70;;;0.80;;
46110;SDS011;31849;55.992;37.252;2024-01-10T00:51:55;1.97;;;0.87;;
46110;SDS011;31849;55.992;37.252;2024-01-10T00:57:01;1.83;;;0.95;;
46110;SDS011;31849;55.992;37.252;2024-01-10T01:02:04;2.30;;;1.10;;
46110;SDS011;31849;55.992;37.252;2024-01-10T01:07:08;1.90;;;0.90;;
46110;SDS011;31849;55.992;37.252;2024-01-10T01:12:13;1.90;;;0.90;;
46110;SDS011;31849;55.992;37.252;2024-01-10T01:17:17;2.05;;;1.10;;
46110;SDS011;31849;55.992;37.252;2024-01-10T01:22:21;7.07;;;0.93;;
46110;SDS011;31849;55.992;37.252;2024-01-10T01:27:26;1.30;;;0.70;;
46110;SDS011;31849;55.992;37.252;2024-01-10T01:32:29;1.67;;;0.68;;
46110;SDS011;31849;55.992;37.252;2024-01-10T01:37:33;1.40;;;0.70;;
46110;SDS011;31849;55.992;37.252;2024-01-10T01:42:38;2.13;;;0.70;;
46110;SDS011;31849;55.992;37.252;2024-01-10T01:47:42;0.70;;;0.40;;
46110;SDS011;31849;55.992;37.252;2024-01-10T01:52:46;1.03;;;0.50;;
46110;SDS011;31849;55.992;37.252;2024-01-10T01:57:51;1.63;;;0.60;;
46110;SDS011;31849;55.992;37.252;2024-01-10T02:02:55;1.38;;;0.73;;
46110;SDS011;31849;55.992;37.252;2024-01-10T02:08:01;1.23;;;0.50;;
46110;SDS011;31849;55.992;37.252;2024-01-10T02:13:07;0.95;;;0.40;;
46110;SDS011;31849;55.992;37.252;2024-01-10T02:18:13;2.53;;;0.40;;
46110;SDS011;31849;55.992;37.252;2024-01-10T02:23:17;0.70;;;0.45;;
46110;SDS011;31849;55.992;37.252;2024-01-10T02:28:22;0.67;;;0.40;;
46110;SDS011;31849;55.992;37.252;2024-01-10T02:33:26;1.33;;;0.57;;
46110;SDS011;31849;55.992;37.252;2024-01-10T02:38:30;1.10;;;0.47;;
46110;SDS011;31849;55.992;37.252;2024-01-10T02:43:35;1.17;;;0.60;;
46110;SDS011;31849;55.992;37.252;2024-01-10T02:48:39;1.30;;;0.68;;
46110;SDS011;31849;55.992;37.252;2024-01-10T02:53:43;1.53;;;0.80;;
46110;SDS011;31849;55.992;37.252;2024-01-10T02:58:48;1.52;;;0.80;;
46110;SDS011;31849;55.992;37.252;2024-01-10T03:03:52;1.50;;;0.80;;
46110;SDS011;31849;55.992;37.252;2024-01-10T03:08:56;2.70;;;1.10;;
46110;SDS011;31849;55.992;37.252;2024-01-10T03:14:02;2.72;;;1.30;;
46110;SDS011;31849;55.992;37.252;2024-01-10T03:19:06;2.57;;;1.40;;
46110;SDS011;31849;55.992;37.252;2024-01-10T03:24:10;4.77;;;1.70;;
46110;SDS011;31849;55.992;37.252;2024-01-10T03:29:17;3.33;;;1.90;;
46110;SDS011;31849;55.992;37.252;2024-01-10T03:34:21;4.20;;;1.90;;
46110;SDS011;31849;55.992;37.252;2024-01-10T03:39:24;3.33;;;1.80;;
46110;SDS011;31849;55.992;37.252;2024-01-10T03:44:29;5.20;;;2.50;;
46110;SDS011;31849;55.992;37.252;2024-01-10T03:49:33;5.07;;;2.33;;
46110;SDS011;31849;55.992;37.252;2024-01-10T03:54:37;4.50;;;2.60;;
46110;SDS011;31849;55.992;37.252;2024-01-10T03:59:42;4.37;;;2.60;;
46110;SDS011;31849;55.992;37.252;2024-01-10T04:04:46;7.53;;;3.33;;
46110;SDS011;31849;55.992;37.252;2024-01-10T04:09:49;10.13;;;3.90;;
46110;SDS011;31849;55.992;37.252;2024-01-10T04:14:54;5.67;;;3.60;;
46110;SDS011;31849;55.992;37.252;2024-01-10T04:19:58;8.20;;;3.93;;
46110;SDS011;31849;55.992;37.252;2024-01-10T04:25:05;7.83;;;4.10;;
46110;SDS011;31849;55.992;37.252;2024-01-10T04:30:12;7.07;;;3.90;;
46110;SDS011;31849;55.992;37.252;2024-01-10T04:35:16;10.87;;;5.00;;
46110;SDS011;31849;55.992;37.252;2024-01-10T04:40:20;8.68;;;5.15;;
46110;SDS011;31849;55.992;37.252;2024-01-10T04:45:25;9.73;;;4.63;;
46110;SDS011;31849;55.992;37.252;2024-01-10T04:50:29;11.47;;;4.53;;
46110;SDS011;31849;55.992;37.252;2024-01-10T04:55:32;7.80;;;4.97;;
46110;SDS011;31849;55.992;37.252;2024-01-10T05:00:38;10.02;;;4.60;;
46110;SDS011;31849;55.992;37.252;2024-01-10T05:05:42;11.27;;;5.17;;
46110;SDS011;31849;55.992;37.252;2024-01-10T05:10:46;8.45;;;4.88;;
46110;SDS011;31849;55.992;37.252;2024-01-10T05:15:51;10.35;;;5.10;;
46110;SDS011;31849;55.992;37.252;2024-01-10T05:20:56;11.50;;;5.00;;
46110;SDS011;31849;55.992;37.252;2024-01-10T05:26:00;8.57;;;4.80;;
46110;SDS011;31849;55.992;37.252;2024-01-10T05:31:05;10.40;;;5.22;;
46110;SDS011;31849;55.992;37.252;2024-01-10T05:36:09;9.70;;;4.10;;
46110;SDS011;31849;55.992;37.252;2024-01-10T05:41:14;8.03;;;4.53;;
46110;SDS011;31849;55.992;37.252;2024-01-10T05:46:20;7.55;;;4.20;;
46110;SDS011;31849;55.992;37.252;2024-01-10T05:51:23;11.50;;;4.70;;
46110;SDS011;31849;55.992;37.252;2024-01-10T05:56:27;8.67;;;4.77;;
46110;SDS011;31849;55.992;37.252;2024-01-10T06:01:32;8.73;;;4.22;;
46110;SDS011;31849;55.992;37.252;2024-01-10T06:06:36;9.47;;;4.67;;
46110;SDS011;31849;55.992;37.252;2024-01-10T06:11:40;11.32;;;4.50;;
46110;SDS011;31849;55.992;37.252;2024-01-10T06:16:46;8.93;;;4.07;;
46110;SDS011;31849;55.992;37.252;2024-01-10T06:21:52;9.73;;;4.87;;
46110;SDS011;31849;55.992;37.252;2024-01-10T06:27:05;5.90;;;3.78;;
46110;SDS011;31849;55.992;37.252;2024-01-10T06:32:24;8.43;;;4.03;;
46110;SDS011;31849;55.992;37.252;2024-01-10T06:37:28;8.77;;;4.23;;
46110;SDS011;31849;55.992;37.252;2024-01-10T06:42:34;8.23;;;4.00;;
46110;SDS011;31849;55.992;37.252;2024-01-10T06:47:41;12.33;;;4.00;;
46110;SDS011;31849;55.992;37.252;2024-01-10T06:52:45;8.80;;;4.07;;
46110;SDS011;31849;55.992;37.252;2024-01-10T06:57:48;8.33;;;4.30;;
46110;SDS011;31849;55.992;37.252;2024-01-10T07:02:56;7.63;;;4.40;;
46110;SDS011;31849;55.992;37.252;2024-01-10T07:08:00;8.57;;;4.13;;
46110;SDS011;31849;55.992;37.252;2024-01-10T07:13:05;9.23;;;3.97;;
46110;SDS011;31849;55.992;37.252;2024-01-10T07:18:10;6.83;;;3.37;;
46110;SDS011;31849;55.992;37.252;2024-01-10T07:23:14;8.47;;;4.37;;
46110;SDS011;31849;55.992;37.252;2024-01-10T07:28:18;9.60;;;4.15;;
46110;SDS011;31849;55.992;37.252;2024-01-10T07:33:24;8.30;;;4.45;;
46110;SDS011;31849;55.992;37.252;2024-01-10T07:38:28;7.23;;;3.77;;
46110;SDS011;31849;55.992;37.252;2024-01-10T07:43:32;7.97;;;3.95;;
46110;SDS011;31849;55.992;37.252;2024-01-10T07:48:37;6.22;;;4.00;;
46110;SDS011;31849;55.992;37.252;2024-01-10T07:53:41;6.43;;;4.10;;
46110;SDS011;31849;55.992;37.252;2024-01-10T07:58:49;5.88;;;3.95;;
46110;SDS011;31849;55.992;37.252;2024-01-10T08:03:54;6.38;;;4.22;;
46110;SDS011;31849;55.992;37.252;2024-01-10T08:08:58;7.55;;;5.03;;
46110;SDS011;31849;55.992;37.252;2024-01-10T08:14:02;5.30;;;4.00;;
46110;SDS011;31849;55.992;37.252;2024-01-10T08:19:08;7.07;;;4.40;;
46110;SDS011;31849;55.992;37.252;2024-01-10T08:24:13;6.00;;;4.20;;
46110;SDS011;31849;55.992;37.252;2024-01-10T08:29:16;6.68;;;4.40;;
46110;SDS011;31849;55.992;37.252;2024-01-10T08:34:22;7.38;;;4.55;;
46110;SDS011;31849;55.992;37.252;2024-01-10T08:39:26;5.45;;;4.28;;
46110;SDS011;31849;55.992;37.252;2024-01-10T08:44:32;6.85;;;4.43;;
46110;SDS011;31849;55.992;37.252;2024-01-10T08:49:38;5.78;;;4.70;;
46110;SDS011;31849;55.992;37.252;2024-01-10T08:54:42;6.22;;;4.28;;
46110;SDS011;31849;55.992;37.252;2024-01-10T08:59:46;6.30;;;4.40;;
46110;SDS011;31849;55.992;37.252;2024-01-10T09:04:52;7.18;;;4.40;;
46110;SDS011;31849;55.992;37.252;2024-01-10T09:09:56;5.15;;;3.75;;
46110;SDS011;31849;55.992;37.252;2024-01-10T09:15:00;6.50;;;3.88;;
46110;SDS011;31849;55.992;37.252;2024-01-10T09:20:07;7.10;;;4.07;;
46110;SDS011;31849;55.992;37.252;2024-01-10T09:25:12;7.25;;;4.32;;
46110;SDS011;31849;55.992;37.252;2024-01-10T09:30:16;6.20;;;4.13;;
46110;SDS011;31849;55.992;37.252;2024-01-10T09:35:21;7.67;;;3.90;;
46110;SDS011;31849;55.992;37.252;2024-01-10T09:40:25;7.50;;;4.03;;
46110;SDS011;31849;55.992;37.252;2024-01-10T09:45:31;8.55;;;3.88;;
46110;SDS011;31849;55.992;37.252;2024-01-10T09:50:39;6.70;;;4.22;;
46110;SDS011;31849;55.992;37.252;2024-01-10T09:55:43;7.47;;;3.90;;
46110;SDS011;31849;55.992;37.252;2024-01-10T10:00:48;7.47;;;3.70;;
46110;SDS011;31849;55.992;37.252;2024-01-10T10:05:53;7.80;;;4.03;;
46110;SDS011;31849;55.992;37.252;2024-01-10T10:10:57;7.33;;;3.63;;
46110;SDS011;31849;55.992;37.252;2024-01-10T10:16:01;7.67;;;4.03;;
46110;SDS011;31849;55.992;37.252;2024-01-10T10:21:08;8.33;;;3.93;;
46110;SDS011;31849;55.992;37.252;2024-01-10T10:26:14;7.43;;;4.03;;
46110;SDS011;31849;55.992;37.252;2024-01-10T10:31:23;6.53;;;3.63;;
46110;SDS011;31849;55.992;37.252;2024-01-10T10:41:33;8.10;;;3.80;;
46110;SDS011;31849;55.992;37.252;2024-01-10T10:46:38;8.57;;;4.30;;
46110;SDS011;31849;55.992;37.252;2024-01-10T10:51:46;10.03;;;4.30;;
46110;SDS011;31849;55.992;37.252;2024-01-10T10:56:51;8.83;;;4.37;;
46110;SDS011;31849;55.992;37.252;2024-01-10T11:01:57;8.37;;;3.80;;
46110;SDS011;31849;55.992;37.252;2024-01-10T11:07:03;8.32;;;3.85;;
46110;SDS011;31849;55.992;37.252;2024-01-10T11:12:15;9.60;;;4.27;;
46110;SDS011;31849;55.992;37.252;2024-01-10T11:17:44;8.13;;;4.63;;
46110;SDS011;31849;55.992;37.252;2024-01-10T11:28:48;7.00;;;3.80;;
46110;SDS011;31849;55.992;37.252;2024-01-10T11:33:53;6.67;;;4.40;;
46110;SDS011;31849;55.992;37.252;2024-01-10T11:39:03;9.60;;;4.47;;
46110;SDS011;31849;55.992;37.252;2024-01-10T11:49:29;8.10;;;3.97;;
46110;SDS011;31849;55.992;37.252;2024-01-10T11:54:42;9.82;;;4.32;;
46110;SDS011;31849;55.992;37.252;2024-01-10T11:59:48;11.27;;;4.20;;
46110;SDS011;31849;55.992;37.252;2024-01-10T12:04:54;10.97;;;4.97;;
46110;SDS011;31849;55.992;37.252;2024-01-10T12:09:59;10.43;;;5.60;;
46110;SDS011;31849;55.992;37.252;2024-01-10T12:15:04;10.40;;;5.00;;
46110;SDS011;31849;55.992;37.252;2024-01-10T12:20:11;13.27;;;6.43;;
46110;SDS011;31849;55.992;37.252;2024-01-10T12:25:17;10.07;;;4.97;;
46110;SDS011;31849;55.992;37.252;2024-01-10T12:30:21;9.70;;;5.27;;
46110;SDS011;31849;55.992;37.252;2024-01-10T12:35:25;11.55;;;4.90;;
46110;SDS011;31849;55.992;37.252;2024-01-10T12:40:30;8.65;;;4.80;;
46110;SDS011;31849;55.992;37.252;2024-01-10T12:45:35;10.10;;;4.63;;
46110;SDS011;31849;55.992;37.252;2024-01-10T12:50:39;8.43;;;4.20;;
46110;SDS011;31849;55.992;37.252;2024-01-10T12:55:44;10.02;;;4.90;;
46110;SDS011;31849;55.992;37.252;2024-01-10T13:00:48;9.83;;;4.67;;
46110;SDS011;31849;55.992;37.252;2024-01-10T13:05:53;12.48;;;4.97;;
46110;SDS011;31849;55.992;37.252;2024-01-10T13:10:58;7.13;;;3.37;;
46110;SDS011;31849;55.992;37.252;2024-01-10T13:16:03;8.60;;;4.90;;
46110;SDS011;31849;55.992;37.252;2024-01-10T13:21:07;11.83;;;5.00;;
46110;SDS011;31849;55.992;37.252;2024-01-10T13:26:14;8.40;;;4.67;;
46110;SDS011;31849;55.992;37.252;2024-01-10T13:31:18;11.83;;;5.47;;
46110;SDS011;31849;55.992;37.252;2024-01-10T13:36:22;9.27;;;4.40;;
46110;SDS011;31849;55.992;37.252;2024-01-10T13:41:27;8.13;;;4.22;;
46110;SDS011;31849;55.992;37.252;2024-01-10T13:46:31;11.83;;;4.40;;
46110;SDS011;31849;55.992;37.252;2024-01-10T13:51:36;8.27;;;4.10;;
46110;SDS011;31849;55.992;37.252;2024-01-10T13:56:44;8.17;;;4.33;;
46110;SDS011;31849;55.992;37.252;2024-01-10T14:01:48;10.47;;;4.73;;
46110;SDS011;31849;55.992;37.252;2024-01-10T14:06:51;8.77;;;4.75;;
46110;SDS011;31849;55.992;37.252;2024-01-10T14:11:57;7.93;;;4.00;;
46110;SDS011;31849;55.992;37.252;2024-01-10T14:17:01;11.07;;;4.50;;
46110;SDS011;31849;55.992;37.252;2024-01-10T14:22:06;8.70;;;4.90;;
46110;SDS011;31849;55.992;37.252;2024-01-10T14:27:28;9.23;;;4.90;;
46110;SDS011;31849;55.992;37.252;2024-01-10T14:32:32;9.57;;;4.87;;
46110;SDS011;31849;55.992;37.252;2024-01-10T14:37:36;10.65;;;5.00;;
46110;SDS011;31849;55.992;37.252;2024-01-10T14:42:41;7.93;;;4.43;;
46110;SDS011;31849;55.992;37.252;2024-01-10T14:47:45;12.67;;;5.37;;
46110;SDS011;31849;55.992;37.252;2024-01-10T14:52:49;9.07;;;4.80;;
46110;SDS011;31849;55.992;37.252;2024-01-10T14:57:54;9.30;;;4.30;;
46110;SDS011;31849;55.992;37.252;2024-01-10T15:02:58;9.97;;;4.67;;
46110;SDS011;31849;55.992;37.252;2024-01-10T15:08:07;9.53;;;4.60;;
46110;SDS011;31849;55.992;37.252;2024-01-10T15:13:13;7.73;;;4.73;;
46110;SDS011;31849;55.992;37.252;2024-01-10T15:18:16;8.20;;;4.80;;
46110;SDS011;31849;55.992;37.252;2024-01-10T15:23:21;10.20;;;4.53;;
46110;SDS011;31849;55.992;37.252;2024-01-10T15:28:27;11.05;;;5.25;;
46110;SDS011;31849;55.992;37.252;2024-01-10T15:33:33;7.63;;;4.60;;
46110;SDS011;31849;55.992;37.252;2024-01-10T15:38:39;10.00;;;4.43;;
46110;SDS011;31849;55.992;37.252;2024-01-10T15:43:44;11.67;;;4.90;;
46110;SDS011;31849;55.992;37.252;2024-01-10T15:48:48;10.23;;;5.00;;
46110;SDS011;31849;55.992;37.252;2024-01-10T15:53:52;12.70;;;5.30;;
46110;SDS011;31849;55.992;37.252;2024-01-10T15:59:00;15.23;;;6.07;;
46110;SDS011;31849;55.992;37.252;2024-01-10T16:04:04;12.77;;;5.30;;
46110;SDS011;31849;55.992;37.252;2024-01-10T16:09:08;15.65;;;5.43;;
46110;SDS011;31849;55.992;37.252;2024-01-10T16:14:15;12.10;;;5.43;;
46110;SDS011;31849;55.992;37.252;2024-01-10T16:19:19;11.40;;;4.83;;
46110;SDS011;31849;55.992;37.252;2024-01-10T16:24:23;12.75;;;5.20;;
46110;SDS011;31849;55.992;37.252;2024-01-10T16:29:29;11.73;;;5.10;;
46110;SDS011;31849;55.992;37.252;2024-01-10T16:34:33;14.03;;;6.07;;
46110;SDS011;31849;55.992;37.252;2024-01-10T16:44:42;10.67;;;5.17;;
46110;SDS011;31849;55.992;37.252;2024-01-10T16:49:46;8.83;;;4.73;;
46110;SDS011;31849;55.992;37.252;2024-01-10T16:54:50;10.25;;;4.75;;
46110;SDS011;31849;55.992;37.252;2024-01-10T16:59:55;9.97;;;4.17;;
46110;SDS011;31849;55.992;37.252;2024-01-10T17:04:59;6.30;;;3.63;;
46110;SDS011;31849;55.992;37.252;2024-01-10T17:10:05;10.93;;;4.73;;
46110;SDS011;31849;55.992;37.252;2024-01-10T17:15:11;12.27;;;5.87;;
46110;SDS011;31849;55.992;37.252;2024-01-10T17:20:15;12.47;;;5.73;;
46110;SDS011;31849;55.992;37.252;2024-01-10T17:25:19;9.73;;;5.45;;
46110;SDS011;31849;55.992;37.252;2024-01-10T17:30:27;8.87;;;5.30;;
46110;SDS011;31849;55.992;37.252;2024-01-10T17:35:31;9.80;;;5.30;;
46110;SDS011;31849;55.992;37.252;2024-01-10T17:40:35;10.10;;;4.78;;
46110;SDS011;31849;55.992;37.252;2024-01-10T17:45:40;10.20;;;4.68;;
46110;SDS011;31849;55.992;37.252;2024-01-10T17:50:44;9.30;;;5.07;;
46110;SDS011;31849;55.992;37.252;2024-01-10T17:55:48;10.93;;;6.50;;
46110;SDS011;31849;55.992;37.252;2024-01-10T18:00:53;10.15;;;4.57;;
46110;SDS011;31849;55.992;37.252;2024-01-10T18:05:57;7.27;;;4.17;;
46110;SDS011;31849;55.992;37.252;2024-01-10T18:11:01;11.68;;;4.97;;
46110;SDS011;31849;55.992;37.252;2024-01-10T18:16:07;7.70;;;4.07;;
46110;SDS011;31849;55.992;37.252;2024-01-10T18:21:10;7.50;;;4.27;;
46110;SDS011;31849;55.992;37.252;2024-01-10T18:26:16;9.53;;;4.30;;
46110;SDS011;31849;55.992;37.252;2024-01-10T18:31:22;8.57;;;4.20;;
46110;SDS011;31849;55.992;37.252;2024-01-10T18:36:26;7.30;;;3.63;;
46110;SDS011;31849;55.992;37.252;2024-01-10T18:41:31;8.57;;;4.50;;
46110;SDS011;31849;55.992;37.252;2024-01-10T18:46:37;9.27;;;4.80;;
46110;SDS011;31849;55.992;37.252;2024-01-10T18:51:41;8.53;;;4.03;;
46110;SDS011;31849;55.992;37.252;2024-01-10T18:56:44;8.73;;;4.30;;
46110;SDS011;31849;55.992;37.252;2024-01-10T19:01:50;10.13;;;4.57;;
46110;SDS011;31849;55.992;37.252;2024-01-10T19:06:54;8.90;;;4.37;;
46110;SDS011;31849;55.992;37.252;2024-01-10T19:11:58;9.55;;;4.80;;
46110;SDS011;31849;55.992;37.252;2024-01-10T19:17:06;10.67;;;5.03;;
46110;SDS011;31849;55.992;37.252;2024-01-10T19:22:10;9.90;;;4.70;;
46110;SDS011;31849;55.992;37.252;2024-01-10T19:32:20;10.60;;;4.87;;
46110;SDS011;31849;55.992;37.252;2024-01-10T19:37:24;8.53;;;4.63;;
46110;SDS011;31849;55.992;37.252;2024-01-10T19:42:30;14.17;;;5.77;;
46110;SDS011;31849;55.992;37.252;2024-01-10T19:47:35;9.97;;;4.90;;
46110;SDS011;31849;55.992;37.252;2024-01-10T19:52:39;13.37;;;5.53;;
46110;SDS011;31849;55.992;37.252;2024-01-10T19:57:43;12.07;;;5.70;;
46110;SDS011;31849;55.992;37.252;2024-01-10T20:02:48;12.40;;;4.83;;
46110;SDS011;31849;55.992;37.252;2024-01-10T20:07:53;6.93;;;4.23;;
46110;SDS011;31849;55.992;37.252;2024-01-10T20:12:58;9.60;;;4.80;;
46110;SDS011;31849;55.992;37.252;2024-01-10T20:18:06;10.20;;;4.97;;
46110;SDS011;31849;55.992;37.252;2024-01-10T20:23:10;9.80;;;4.83;;
46110;SDS011;31849;55.992;37.252;2024-01-10T20:28:14;12.87;;;5.30;;
46110;SDS011;31849;55.992;37.252;2024-01-10T20:33:21;8.47;;;4.17;;
46110;SDS011;31849;55.992;37.252;2024-01-10T20:38:25;8.43;;;4.73;;
46110;SDS011;31849;55.992;37.252;2024-01-10T20:43:29;11.15;;;4.65;;
46110;SDS011;31849;55.992;37.252;2024-01-10T20:48:36;9.53;;;4.40;;
46110;SDS011;31849;55.992;37.252;2024-01-10T20:53:40;9.80;;;4.53;;
46110;SDS011;31849;55.992;37.252;2024-01-10T20:58:43;9.32;;;4.18;;
46110;SDS011;31849;55.992;37.252;2024-01-10T21:03:48;9.17;;;4.90;;
46110;SDS011;31849;55.992;37.252;2024-01-10T21:08:52;9.80;;;4.83;;
46110;SDS011;31849;55.992;37.252;2024-01-10T21:13:58;10.10;;;4.97;;
46110;SDS011;31849;55.992;37.252;2024-01-10T21:19:04;9.15;;;4.47;;
46110;SDS011;31849;55.992;37.252;2024-01-10T21:24:08;9.60;;;4.10;;
46110;SDS011;31849;55.992;37.252;2024-01-10T21:29:12;7.63;;;4.40;;
46110;SDS011;31849;55.992;37.252;2024-01-10T21:34:17;8.52;;;4.45;;
46110;SDS011;31849;55.992;37.252;2024-01-10T21:39:22;9.07;;;4.27;;
46110;SDS011;31849;55.992;37.252;2024-01-10T21:44:26;8.97;;;4.73;;
46110;SDS011;31849;55.992;37.252;2024-01-10T21:49:32;11.60;;;4.30;;
46110;SDS011;31849;55.992;37.252;2024-01-10T21:54:35;7.80;;;4.47;;
46110;SDS011;31849;55.992;37.252;2024-01-10T21:59:41;7.90;;;4.07;;
46110;SDS011;31849;55.992;37.252;2024-01-10T22:04:46;8.67;;;4.03;;
46110;SDS011;31849;55.992;37.252;2024-01-10T22:09:50;7.43;;;3.90;;
46110;SDS011;31849;55.992;37.252;2024-01-10T22:14:54;9.77;;;4.80;;
46110;SDS011;31849;55.992;37.252;2024-01-10T22:19:59;7.87;;;4.03;;
46110;SDS011;31849;55.992;37.252;2024-01-10T22:25:05;6.93;;;3.87;;
46110;SDS011;31849;55.992;37.252;2024-01-10T22:30:10;9.63;;;4.40;;
46110;SDS011;31849;55.992;37.252;2024-01-10T22:35:15;9.18;;;4.18;;
46110;SDS011;31849;55.992;37.252;2024-01-10T22:40:20;7.23;;;3.37;;
46110;SDS011;31849;55.992;37.252;2024-01-10T22:45:24;8.67;;;4.17;;
46110;SDS011;31849;55.992;37.252;2024-01-10T22:50:29;10.43;;;4.07;;
46110;SDS011;31849;55.992;37.252;2024-01-10T22:55:33;6.93;;;3.70;;
46110;SDS011;31849;55.992;37.252;2024-01-10T23:00:36;5.83;;;3.30;;
46110;SDS011;31849;55.992;37.252;2024-01-10T23:05:42;6.32;;;3.45;;
46110;SDS011;31849;55.992;37.252;2024-01-10T23:10:46;6.30;;;3.40;;
46110;SDS011;31849;55.992;37.252;2024-01-10T23:15:49;8.83;;;4.07;;
46110;SDS011;31849;55.992;37.252;2024-01-10T23:20:55;6.65;;;3.58;;
46110;SDS011;31849;55.992;37.252;2024-01-10T23:25:59;7.53;;;3.30;;
46110;SDS011;31849;55.992;37.252;2024-01-10T23:31:13;6.23;;;3.33;;
46110;SDS011;31849;55.992;37.252;2024-01-10T23:36:18;5.80;;;2.90;;
46110;SDS011;31849;55.992;37.252;2024-01-10T23:41:22;7.27;;;3.33;;
46110;SDS011;31849;55.992;37.252;2024-01-10T23:46:26;6.20;;;3.43;;
46110;SDS011;31849;55.992;37.252;2024-01-10T23:51:31;5.37;;;2.80;;
46110;SDS011;31849;55.992;37.252;2024-01-10T23:56:35;6.37;;;2.97;;
